createdAt,value
2023-01-13T00:00:48.144Z,9.309120
2023-01-13T00:01:48.118Z,9.309102
2023-01-13T00:02:48.070Z,9.309069
2023-01-13T00:03:48.052Z,9.309092
2023-01-13T00:04:48.050Z,9.309068
2023-01-13T00:05:48.038Z,9.309042
2023-01-13T00:06:48.051Z,9.309112
2023-01-13T00:07:48.364Z,9.309124
2023-01-13T00:08:48.088Z,9.309089
2023-01-13T00:09:48.078Z,9.309069
2023-01-13T00:10:48.016Z,9.309065
2023-01-13T00:11:48.056Z,9.309041
2023-01-13T00:12:49.054Z,9.309087
2023-01-13T00:13:48.072Z,9.309091
2023-01-13T00:14:48.062Z,9.309046
2023-01-13T00:15:48.086Z,9.309076
2023-01-13T00:16:49.066Z,9.309066
2023-01-13T00:17:48.071Z,9.309077
2023-01-13T00:18:48.073Z,9.309164
2023-01-13T00:19:48.063Z,9.309068
2023-01-13T00:20:48.009Z,9.309030
2023-01-13T00:21:48.032Z,9.309110
2023-01-13T00:22:48.024Z,9.309095
2023-01-13T00:23:48.018Z,9.309131
2023-01-13T00:24:48.012Z,9.309096
2023-01-13T00:25:47.985Z,9.309102
2023-01-13T00:26:47.976Z,9.309047
2023-01-13T00:27:47.948Z,9.309098
2023-01-13T00:28:49.049Z,9.309043
2023-01-13T00:29:47.947Z,9.309006
2023-01-13T00:30:47.945Z,9.309071
2023-01-13T00:31:47.934Z,9.309139
2023-01-13T00:32:47.934Z,9.309077
2023-01-13T00:33:47.979Z,9.309080
2023-01-13T00:34:47.913Z,9.309047
2023-01-13T00:35:47.901Z,9.309093
2023-01-13T00:36:47.895Z,9.309163
2023-01-13T00:37:47.869Z,9.309058
2023-01-13T00:38:47.970Z,9.308870
2023-01-13T00:39:47.916Z,9.308935
2023-01-13T00:40:47.885Z,9.308968
2023-01-13T00:41:47.848Z,9.308969
2023-01-13T00:42:47.750Z,9.308980
2023-01-13T00:43:47.821Z,9.309041
2023-01-13T00:44:47.944Z,9.309030
2023-01-13T00:45:47.843Z,9.309096
2023-01-13T00:46:47.876Z,9.309150
2023-01-13T00:47:47.787Z,9.309065
2023-01-13T00:48:47.793Z,9.309034
2023-01-13T00:49:47.775Z,9.308910
2023-01-13T00:50:47.816Z,9.308935
2023-01-13T00:51:47.783Z,9.308969
2023-01-13T00:52:47.758Z,9.308969
2023-01-13T00:53:47.774Z,9.308940
2023-01-13T00:54:47.759Z,9.308637
2023-01-13T00:55:47.795Z,9.309018
2023-01-13T00:56:47.741Z,9.309022
2023-01-13T00:57:47.730Z,9.308969
2023-01-13T00:58:47.735Z,9.308893
2023-01-13T00:59:49.519Z,9.309004
2023-01-13T01:00:48.753Z,9.308839
2023-01-13T01:01:47.844Z,9.309105
2023-01-13T01:02:47.688Z,9.308951
2023-01-13T01:03:47.604Z,9.308961
2023-01-13T01:04:47.622Z,9.308944
2023-01-13T01:05:47.597Z,9.308898
2023-01-13T01:06:47.615Z,9.308925
2023-01-13T01:07:47.582Z,9.309026
2023-01-13T01:08:47.586Z,9.309028
2023-01-13T01:09:47.541Z,9.308969
2023-01-13T01:10:47.540Z,9.309017
2023-01-13T01:11:48.621Z,9.309038
2023-01-13T01:12:47.561Z,9.308990
2023-01-13T01:13:47.538Z,9.309001
2023-01-13T01:14:47.551Z,9.309064
2023-01-13T01:15:47.665Z,9.308972
2023-01-13T01:16:47.616Z,9.308993
2023-01-13T01:17:47.598Z,9.308994
2023-01-13T01:18:47.575Z,9.308971
2023-01-13T01:19:47.581Z,9.308949
2023-01-13T01:20:47.576Z,9.308982
2023-01-13T01:21:47.548Z,9.309071
2023-01-13T01:22:47.644Z,9.309174
2023-01-13T01:23:47.552Z,9.309063
2023-01-13T01:24:47.552Z,9.309091
2023-01-13T01:25:47.525Z,9.309119
2023-01-13T01:26:47.562Z,9.309109
2023-01-13T01:27:47.543Z,9.309083
2023-01-13T01:28:47.598Z,9.309094
2023-01-13T01:29:47.492Z,9.309007
2023-01-13T01:30:47.494Z,9.308998
2023-01-13T01:31:47.515Z,9.309041
2023-01-13T01:32:47.491Z,9.309011
2023-01-13T01:33:47.554Z,9.309011
2023-01-13T01:34:47.464Z,9.309012
2023-01-13T01:35:47.453Z,9.309053
2023-01-13T01:36:47.452Z,9.309001
2023-01-13T01:37:47.420Z,9.309022
2023-01-13T01:38:47.502Z,9.309021
2023-01-13T01:39:47.426Z,9.308997
2023-01-13T01:40:47.416Z,9.309048
2023-01-13T01:41:47.428Z,9.308999
2023-01-13T01:42:47.403Z,9.309026
2023-01-13T01:43:47.405Z,9.309010
2023-01-13T01:44:49.308Z,9.309068
2023-01-13T01:45:47.367Z,9.309011
2023-01-13T01:46:47.366Z,9.309037
2023-01-13T01:47:47.311Z,9.309015
2023-01-13T01:48:47.280Z,9.308975
2023-01-13T01:49:47.327Z,9.309013
2023-01-13T01:50:47.258Z,9.309056
2023-01-13T01:51:47.280Z,9.309085
2023-01-13T01:52:47.255Z,9.309081
2023-01-13T01:53:47.324Z,9.309108
2023-01-13T01:54:47.353Z,9.309107
2023-01-13T01:55:47.302Z,9.309051
2023-01-13T01:56:47.323Z,9.309050
2023-01-13T01:57:47.312Z,9.309048
2023-01-13T01:58:47.328Z,9.309062
2023-01-13T01:59:47.296Z,9.309038
2023-01-13T02:00:47.342Z,9.309095
2023-01-13T02:01:47.329Z,9.309090
2023-01-13T02:02:47.315Z,9.309120
2023-01-13T02:03:47.265Z,9.309152
2023-01-13T02:04:47.248Z,9.309029
2023-01-13T02:05:47.329Z,9.309033
2023-01-13T02:06:47.221Z,9.308997
2023-01-13T02:07:47.235Z,9.308997
2023-01-13T02:08:47.282Z,9.308989
2023-01-13T02:09:47.223Z,9.309024
2023-01-13T02:10:47.249Z,9.309020
2023-01-13T02:11:47.241Z,9.309026
2023-01-13T02:12:47.178Z,9.309035
2023-01-13T02:13:47.169Z,9.308947
2023-01-13T02:14:47.186Z,9.308965
2023-01-13T02:15:47.160Z,9.308971
2023-01-13T02:16:47.215Z,9.308950
2023-01-13T02:17:47.102Z,9.309069
2023-01-13T02:18:47.060Z,9.309156
2023-01-13T02:19:48.139Z,9.309143
2023-01-13T02:20:47.062Z,9.309136
2023-01-13T02:21:47.083Z,9.309107
2023-01-13T02:22:47.064Z,9.308999
2023-01-13T02:23:47.044Z,9.308993
2023-01-13T02:24:47.013Z,9.309017
2023-01-13T02:25:47.021Z,9.308990
2023-01-13T02:26:47.019Z,9.309010
2023-01-13T02:27:47.020Z,9.308986
2023-01-13T02:28:46.985Z,9.309058
2023-01-13T02:29:46.997Z,9.309093
2023-01-13T02:30:47.087Z,9.309078
2023-01-13T02:31:46.992Z,9.308930
2023-01-13T02:32:46.973Z,9.309010
2023-01-13T02:33:47.025Z,9.308990
2023-01-13T02:34:46.945Z,9.309035
2023-01-13T02:35:46.986Z,9.309114
2023-01-13T02:36:47.052Z,9.308988
2023-01-13T02:37:47.012Z,9.309043
2023-01-13T02:38:47.094Z,9.309017
2023-01-13T02:39:46.980Z,9.309069
2023-01-13T02:40:46.975Z,9.309039
2023-01-13T02:41:46.972Z,9.309020
2023-01-13T02:42:46.984Z,9.308971
2023-01-13T02:43:46.947Z,9.308959
2023-01-13T02:44:47.049Z,9.309087
2023-01-13T02:45:47.026Z,9.309091
2023-01-13T02:46:46.989Z,9.309073
2023-01-13T02:47:46.964Z,9.309060
2023-01-13T02:48:46.960Z,9.308968
2023-01-13T02:49:46.944Z,9.308939
2023-01-13T02:50:46.951Z,9.309072
2023-01-13T02:51:46.940Z,9.309099
2023-01-13T02:52:46.936Z,9.309044
2023-01-13T02:53:46.919Z,9.309026
2023-01-13T02:54:46.921Z,9.309115
2023-01-13T02:55:46.920Z,9.309088
2023-01-13T02:56:46.946Z,9.308764
2023-01-13T02:57:46.871Z,9.308880
2023-01-13T02:58:46.860Z,9.309043
2023-01-13T02:59:46.937Z,9.309151
2023-01-13T03:00:46.956Z,9.308997
2023-01-13T03:01:46.978Z,9.308777
2023-01-13T03:02:46.903Z,9.308674
2023-01-13T03:03:46.845Z,9.308847
2023-01-13T03:04:46.848Z,9.308964
2023-01-13T03:05:46.824Z,9.309139
2023-01-13T03:06:46.805Z,9.309428
2023-01-13T03:07:46.745Z,9.309182
2023-01-13T03:08:46.764Z,9.308936
2023-01-13T03:09:46.729Z,9.308917
2023-01-13T03:10:46.771Z,9.308985
2023-01-13T03:11:46.752Z,9.308969
2023-01-13T03:12:46.683Z,9.308986
2023-01-13T03:13:46.730Z,9.309037
2023-01-13T03:14:46.705Z,9.309108
2023-01-13T03:15:46.694Z,9.309098
2023-01-13T03:16:46.704Z,9.309081
2023-01-13T03:17:47.124Z,9.309105
2023-01-13T03:18:46.663Z,9.309141
2023-01-13T03:19:46.805Z,9.309089
2023-01-13T03:20:46.731Z,9.309028
2023-01-13T03:21:46.739Z,9.309080
2023-01-13T03:22:46.785Z,9.309101
2023-01-13T03:23:46.692Z,9.309002
2023-01-13T03:24:46.709Z,9.308984
2023-01-13T03:25:46.716Z,9.309056
2023-01-13T03:26:46.682Z,9.309011
2023-01-13T03:27:46.668Z,9.309033
2023-01-13T03:28:46.734Z,9.309080
2023-01-13T03:29:46.669Z,9.309024
2023-01-13T03:30:46.697Z,9.308993
2023-01-13T03:31:46.681Z,9.309032
2023-01-13T03:32:46.645Z,9.308898
2023-01-13T03:33:46.709Z,9.308966
2023-01-13T03:34:46.668Z,9.309065
2023-01-13T03:35:46.663Z,9.309056
2023-01-13T03:36:46.656Z,9.309048
2023-01-13T03:37:46.593Z,9.309103
2023-01-13T03:38:46.649Z,9.309133
2023-01-13T03:39:47.661Z,9.309104
2023-01-13T03:40:46.658Z,9.309078
2023-01-13T03:41:46.598Z,9.309088
2023-01-13T03:42:46.585Z,9.309087
2023-01-13T03:43:46.588Z,9.309086
2023-01-13T03:44:46.592Z,9.309015
2023-01-13T03:45:46.583Z,9.308968
2023-01-13T03:46:46.589Z,9.308975
2023-01-13T03:47:46.593Z,9.309133
2023-01-13T03:48:46.537Z,9.309113
2023-01-13T03:49:46.535Z,9.309133
2023-01-13T03:50:46.582Z,9.309188
2023-01-13T03:51:46.547Z,9.309045
2023-01-13T03:52:46.559Z,9.309043
2023-01-13T03:53:46.531Z,9.309017
2023-01-13T03:54:46.512Z,9.308856
2023-01-13T03:55:46.605Z,9.308734
2023-01-13T03:56:46.501Z,9.309001
2023-01-13T03:57:46.523Z,9.309064
2023-01-13T03:58:46.456Z,9.309036
2023-01-13T03:59:46.477Z,9.309124
2023-01-13T04:00:46.455Z,9.309111
2023-01-13T04:01:46.546Z,9.309064
2023-01-13T04:02:46.369Z,9.308920
2023-01-13T04:03:46.377Z,9.309011
2023-01-13T04:04:46.335Z,9.309153
2023-01-13T04:05:46.323Z,9.309056
2023-01-13T04:06:46.397Z,9.308988
2023-01-13T04:07:46.290Z,9.309133
2023-01-13T04:08:46.297Z,9.309155
2023-01-13T04:09:46.324Z,9.309078
2023-01-13T04:10:46.287Z,9.309065
2023-01-13T04:11:46.309Z,9.309073
2023-01-13T04:12:46.324Z,9.309085
2023-01-13T04:13:46.284Z,9.309134
2023-01-13T04:14:46.246Z,9.309157
2023-01-13T04:15:46.287Z,9.309185
2023-01-13T04:16:46.325Z,9.309122
2023-01-13T04:17:46.411Z,9.309090
2023-01-13T04:18:46.353Z,9.309082
2023-01-13T04:19:46.306Z,9.309087
2023-01-13T04:20:46.332Z,9.309136
2023-01-13T04:21:46.307Z,9.309122
2023-01-13T04:22:46.353Z,9.309087
2023-01-13T04:23:46.337Z,9.309124
2023-01-13T04:24:46.323Z,9.309198
2023-01-13T04:25:46.269Z,9.309122
2023-01-13T04:26:46.159Z,9.309127
2023-01-13T04:27:46.235Z,9.309129
2023-01-13T04:28:46.298Z,9.309113
2023-01-13T04:29:46.236Z,9.309171
2023-01-13T04:30:46.345Z,9.309128
2023-01-13T04:31:46.234Z,9.309172
2023-01-13T04:32:46.220Z,9.309061
2023-01-13T04:33:46.222Z,9.309052
2023-01-13T04:34:46.252Z,9.309129
2023-01-13T04:35:46.203Z,9.309136
2023-01-13T04:36:46.211Z,9.309191
2023-01-13T04:37:46.192Z,9.309196
2023-01-13T04:38:46.177Z,9.309141
2023-01-13T04:39:46.185Z,9.309139
2023-01-13T04:40:46.187Z,9.309052
2023-01-13T04:41:46.199Z,9.309139
2023-01-13T04:42:46.188Z,9.309120
2023-01-13T04:43:46.211Z,9.309028
2023-01-13T04:44:46.133Z,9.309057
2023-01-13T04:45:46.211Z,9.309106
2023-01-13T04:46:46.100Z,9.309035
2023-01-13T04:47:46.107Z,9.309010
2023-01-13T04:48:46.092Z,9.309023
2023-01-13T04:49:46.092Z,9.309123
2023-01-13T04:50:46.134Z,9.309110
2023-01-13T04:51:46.079Z,9.309059
2023-01-13T04:52:46.107Z,9.309053
2023-01-13T04:53:46.037Z,9.309108
2023-01-13T04:54:46.048Z,9.309050
2023-01-13T04:55:46.055Z,9.308945
2023-01-13T04:56:46.115Z,9.309045
2023-01-13T04:57:46.050Z,9.309096
2023-01-13T04:58:46.040Z,9.309093
2023-01-13T04:59:46.028Z,9.309096
2023-01-13T05:00:46.086Z,9.309040
2023-01-13T05:01:46.247Z,9.309100
2023-01-13T05:02:46.039Z,9.309000
2023-01-13T05:03:45.985Z,9.308987
2023-01-13T05:04:46.145Z,9.309011
2023-01-13T05:05:45.984Z,9.309016
2023-01-13T05:06:46.018Z,9.309031
2023-01-13T05:07:46.031Z,9.309232
2023-01-13T05:08:46.038Z,9.309172
2023-01-13T05:09:45.986Z,9.309072
2023-01-13T05:10:46.296Z,9.309161
2023-01-13T05:11:45.877Z,9.309117
2023-01-13T05:12:45.876Z,9.309051
2023-01-13T05:13:45.867Z,9.309045
2023-01-13T05:14:45.886Z,9.309086
2023-01-13T05:15:45.884Z,9.309030
2023-01-13T05:16:45.792Z,9.309028
2023-01-13T05:17:45.842Z,9.308843
2023-01-13T05:18:46.125Z,9.308907
2023-01-13T05:19:45.899Z,9.309070
2023-01-13T05:20:45.851Z,9.309083
2023-01-13T05:21:46.796Z,9.308982
2023-01-13T05:22:45.846Z,9.308804
2023-01-13T05:23:45.889Z,9.308832
2023-01-13T05:24:45.853Z,9.308888
2023-01-13T05:25:45.755Z,9.308926
2023-01-13T05:26:45.828Z,9.309082
2023-01-13T05:27:45.923Z,9.309127
2023-01-13T05:28:45.885Z,9.309102
2023-01-13T05:29:45.931Z,9.309017
2023-01-13T05:30:45.815Z,9.309047
2023-01-13T05:31:45.877Z,9.309022
2023-01-13T05:32:45.815Z,9.309001
2023-01-13T05:33:45.883Z,9.308979
2023-01-13T05:34:45.821Z,9.309010
2023-01-13T05:35:45.803Z,9.309065
2023-01-13T05:36:45.785Z,9.309036
2023-01-13T05:37:45.770Z,9.309056
2023-01-13T05:38:45.783Z,9.309000
2023-01-13T05:39:45.805Z,9.308991
2023-01-13T05:40:45.804Z,9.308973
2023-01-13T05:41:45.734Z,9.308983
2023-01-13T05:42:45.738Z,9.309032
2023-01-13T05:43:45.755Z,9.309019
2023-01-13T05:44:45.725Z,9.309002
2023-01-13T05:45:45.735Z,9.309125
2023-01-13T05:46:45.747Z,9.309106
2023-01-13T05:47:45.611Z,9.309080
2023-01-13T05:48:45.649Z,9.309050
2023-01-13T05:49:45.619Z,9.309099
2023-01-13T05:50:45.567Z,9.309045
2023-01-13T05:51:45.630Z,9.309023
2023-01-13T05:52:45.570Z,9.309078
2023-01-13T05:53:45.579Z,9.309050
2023-01-13T05:54:45.567Z,9.309051
2023-01-13T05:55:45.569Z,9.309014
2023-01-13T05:56:45.586Z,9.309056
2023-01-13T05:57:45.571Z,9.309079
2023-01-13T05:58:45.587Z,9.309105
2023-01-13T05:59:45.531Z,9.309142
2023-01-13T06:00:45.541Z,9.309144
2023-01-13T06:01:45.501Z,9.309163
2023-01-13T06:02:45.634Z,9.309066
2023-01-13T06:03:45.501Z,9.309055
2023-01-13T06:04:45.529Z,9.309018
2023-01-13T06:05:45.544Z,9.309014
2023-01-13T06:06:45.552Z,9.309048
2023-01-13T06:07:45.639Z,9.309131
2023-01-13T06:08:45.600Z,9.309127
2023-01-13T06:09:45.539Z,9.309145
2023-01-13T06:10:45.445Z,9.309052
2023-01-13T06:11:45.556Z,9.309023
2023-01-13T06:12:45.557Z,9.308992
2023-01-13T06:13:45.574Z,9.309015
2023-01-13T06:14:45.530Z,9.309069
2023-01-13T06:15:45.598Z,9.309086
2023-01-13T06:16:45.501Z,9.309116
2023-01-13T06:17:45.590Z,9.309198
2023-01-13T06:18:45.730Z,9.309115
2023-01-13T06:19:45.580Z,9.309093
2023-01-13T06:22:53.367Z,9.309111
2023-01-13T06:23:53.372Z,9.309126
2023-01-13T06:24:53.254Z,9.309023
2023-01-13T06:25:53.330Z,9.309041
2023-01-13T06:26:53.396Z,9.309044
2023-01-13T06:27:53.318Z,9.309021
2023-01-13T06:28:53.325Z,9.308945
2023-01-13T06:29:53.253Z,9.308930
2023-01-13T06:30:53.260Z,9.308854
2023-01-13T06:31:53.310Z,9.309149
2023-01-13T06:32:53.249Z,9.309011
2023-01-13T06:33:53.290Z,9.309021
2023-01-13T06:34:53.281Z,9.308998
2023-01-13T06:35:53.268Z,9.309011
2023-01-13T06:36:53.247Z,9.309060
2023-01-13T06:37:53.227Z,9.309015
2023-01-13T06:38:53.239Z,9.308987
2023-01-13T06:39:53.275Z,9.308990
2023-01-13T06:40:53.196Z,9.308956
2023-01-13T06:41:53.183Z,9.308982
2023-01-13T06:42:53.228Z,9.309028
2023-01-13T06:43:53.236Z,9.309034
2023-01-13T06:44:53.192Z,9.308949
2023-01-13T06:45:53.284Z,9.309004
2023-01-13T06:46:53.247Z,9.309002
2023-01-13T06:47:53.229Z,9.309037
2023-01-13T06:48:53.138Z,9.309014
2023-01-13T06:49:53.146Z,9.308978
2023-01-13T06:50:53.162Z,9.309049
2023-01-13T06:51:53.137Z,9.309132
2023-01-13T06:52:53.148Z,9.309010
2023-01-13T06:53:53.117Z,9.308887
2023-01-13T06:54:53.144Z,9.308994
2023-01-13T06:55:53.014Z,9.309012
2023-01-13T06:56:53.094Z,9.309035
2023-01-13T06:57:53.009Z,9.309030
2023-01-13T06:58:52.976Z,9.309016
2023-01-13T06:59:52.996Z,9.309020
2023-01-13T07:00:53.093Z,9.309061
2023-01-13T07:01:53.161Z,9.309116
2023-01-13T07:02:53.035Z,9.309046
2023-01-13T07:03:52.979Z,9.309041
2023-01-13T07:04:52.938Z,9.309113
2023-01-13T07:05:52.958Z,9.309194
2023-01-13T07:06:52.928Z,9.309213
2023-01-13T07:07:53.090Z,9.309076
2023-01-13T07:08:52.950Z,9.309098
2023-01-13T07:09:52.926Z,9.309255
2023-01-13T07:10:52.939Z,9.309132
2023-01-13T07:12:25.167Z,9.309026
2023-01-13T07:13:24.891Z,9.309051
2023-01-13T07:13:52.965Z,9.309028
2023-01-13T07:14:52.959Z,9.309017
2023-01-13T07:15:53.021Z,9.309093
2023-01-13T07:16:52.962Z,9.309194
2023-01-13T07:17:52.949Z,9.309078
2023-01-13T07:18:53.176Z,9.309136
2023-01-13T07:19:53.004Z,9.309112
2023-01-13T07:20:52.927Z,9.309067
2023-01-13T07:21:52.933Z,9.309059
2023-01-13T07:22:52.924Z,9.309045
2023-01-13T07:23:52.964Z,9.309083
2023-01-13T07:24:52.911Z,9.309149
2023-01-13T07:25:52.890Z,9.309210
2023-01-13T07:26:52.886Z,9.309073
2023-01-13T07:27:53.900Z,9.309097
2023-01-13T07:28:52.868Z,9.309052
2023-01-13T07:29:52.958Z,9.309122
2023-01-13T07:30:52.956Z,9.309140
2023-01-13T07:31:52.991Z,9.309219
2023-01-13T07:32:52.822Z,9.309201
2023-01-13T07:33:52.932Z,9.309191
2023-01-13T07:34:52.877Z,9.309261
2023-01-13T07:35:52.826Z,9.309212
2023-01-13T07:36:52.817Z,9.309211
2023-01-13T07:37:52.798Z,9.309250
2023-01-13T07:38:54.848Z,9.309225
2023-01-13T07:39:53.817Z,9.309193
2023-01-13T07:40:52.697Z,9.309179
2023-01-13T07:41:52.710Z,9.309148
2023-01-13T07:42:52.669Z,9.309069
2023-01-13T07:43:53.697Z,9.309081
2023-01-13T07:44:52.693Z,9.309142
2023-01-13T07:45:52.713Z,9.309201
2023-01-13T07:46:52.633Z,9.309136
2023-01-13T07:47:52.784Z,9.309120
2023-01-13T07:48:52.726Z,9.309086
2023-01-13T07:49:52.745Z,9.309121
2023-01-13T07:50:52.815Z,9.309113
2023-01-13T07:51:52.737Z,9.309106
2023-01-13T07:52:52.735Z,9.309121
2023-01-13T07:53:52.721Z,9.309116
2023-01-13T07:54:52.787Z,9.309105
2023-01-13T07:55:52.686Z,9.309106
2023-01-13T07:56:52.806Z,9.309084
2023-01-13T07:57:52.668Z,9.309095
2023-01-13T07:58:52.723Z,9.309113
2023-01-13T07:59:52.709Z,9.309084
2023-01-13T08:00:52.797Z,9.309104
2023-01-13T08:01:52.896Z,9.309104
2023-01-13T08:02:52.736Z,9.309080
2023-01-13T08:03:52.660Z,9.309135
2023-01-13T08:04:52.733Z,9.309096
2023-01-13T08:05:52.679Z,9.309130
2023-01-13T08:06:52.649Z,9.309120
2023-01-13T08:07:52.611Z,9.309091
2023-01-13T08:08:52.616Z,9.309066
2023-01-13T08:09:52.570Z,9.309074
2023-01-13T08:10:52.555Z,9.309076
2023-01-13T08:11:52.598Z,9.309077
2023-01-13T08:12:57.014Z,9.309074
2023-01-13T08:13:52.640Z,9.309112
2023-01-13T08:14:52.560Z,9.309132
2023-01-13T08:15:52.616Z,9.309157
2023-01-13T08:16:52.622Z,9.309135
2023-01-13T08:17:52.691Z,9.309145
2023-01-13T08:18:52.562Z,9.309081
2023-01-13T08:19:52.641Z,9.309077
2023-01-13T08:20:52.642Z,9.309095
2023-01-13T08:21:52.478Z,9.309148
2023-01-13T08:22:52.533Z,9.309095
2023-01-13T08:23:52.773Z,9.309126
2023-01-13T08:24:52.627Z,9.309217
2023-01-13T08:25:52.490Z,9.309165
2023-01-13T08:26:52.473Z,9.309101
2023-01-13T08:27:52.491Z,9.309105
2023-01-13T08:28:52.505Z,9.309082
2023-01-13T08:29:52.478Z,9.309065
2023-01-13T08:30:52.486Z,9.308958
2023-01-13T08:31:52.488Z,9.308929
2023-01-13T08:32:52.668Z,9.309041
2023-01-13T08:33:52.405Z,9.308926
2023-01-13T08:34:52.485Z,9.308928
2023-01-13T08:35:52.410Z,9.308917
2023-01-13T08:36:52.541Z,9.308936
2023-01-13T08:37:52.437Z,9.309028
2023-01-13T08:38:52.445Z,9.309080
2023-01-13T08:39:52.475Z,9.309033
2023-01-13T08:40:52.529Z,9.309047
2023-01-13T08:41:52.402Z,9.309073
2023-01-13T08:42:52.506Z,9.309036
2023-01-13T08:43:52.420Z,9.309049
2023-01-13T08:44:52.367Z,9.309074
2023-01-13T08:45:52.337Z,9.309152
2023-01-13T08:46:52.283Z,9.309129
2023-01-13T08:47:52.237Z,9.309082
2023-01-13T08:48:52.275Z,9.309104
2023-01-13T08:49:52.241Z,9.309013
2023-01-13T08:50:52.274Z,9.308970
2023-01-13T08:51:52.218Z,9.309062
2023-01-13T08:52:52.213Z,9.308926
2023-01-13T08:53:52.211Z,9.309072
2023-01-13T08:54:52.218Z,9.309014
2023-01-13T08:55:52.237Z,9.308954
2023-01-13T08:56:52.447Z,9.309039
2023-01-13T08:57:54.447Z,9.309082
2023-01-13T08:58:52.305Z,9.309115
2023-01-13T08:59:52.175Z,9.309175
2023-01-13T09:00:52.330Z,9.309111
2023-01-13T09:01:52.323Z,9.309102
2023-01-13T09:02:52.222Z,9.309085
2023-01-13T09:03:52.399Z,9.309016
2023-01-13T09:04:52.273Z,9.308949
2023-01-13T09:05:52.314Z,9.308996
2023-01-13T09:06:52.293Z,9.309035
2023-01-13T09:07:52.231Z,9.309040
2023-01-13T09:08:52.272Z,9.309098
2023-01-13T09:09:52.229Z,9.308958
2023-01-13T09:10:52.092Z,9.308870
2023-01-13T09:11:52.194Z,9.308944
2023-01-13T09:12:52.258Z,9.308955
2023-01-13T09:13:52.152Z,9.309030
2023-01-13T09:14:52.138Z,9.309112
2023-01-13T09:15:52.172Z,9.309136
2023-01-13T09:16:52.182Z,9.309114
2023-01-13T09:17:52.184Z,9.309111
2023-01-13T09:18:52.162Z,9.309149
2023-01-13T09:19:52.125Z,9.309116
2023-01-13T09:20:52.142Z,9.309118
2023-01-13T09:21:52.145Z,9.309102
2023-01-13T09:22:52.151Z,9.309117
2023-01-13T09:23:53.145Z,9.309065
2023-01-13T09:24:52.117Z,9.309052
2023-01-13T09:25:52.091Z,9.309081
2023-01-13T09:26:52.125Z,9.309082
2023-01-13T09:27:52.064Z,9.309072
2023-01-13T09:28:52.184Z,9.309071
2023-01-13T09:29:52.042Z,9.309055
2023-01-13T09:30:52.186Z,9.309075
2023-01-13T09:31:52.092Z,9.309052
2023-01-13T09:32:52.020Z,9.309093
2023-01-13T09:33:52.134Z,9.309106
2023-01-13T09:34:52.173Z,9.309017
2023-01-13T09:35:52.020Z,9.309044
2023-01-13T09:36:52.002Z,9.309098
2023-01-13T09:37:51.993Z,9.309028
2023-01-13T09:38:51.991Z,9.309022
2023-01-13T09:39:52.015Z,9.309058
2023-01-13T09:40:52.040Z,9.309020
2023-01-13T09:41:52.013Z,9.309156
2023-01-13T09:42:51.962Z,9.309149
2023-01-13T09:43:52.011Z,9.309034
2023-01-13T09:44:51.938Z,9.309086
2023-01-13T09:45:52.036Z,9.309160
2023-01-13T09:46:51.934Z,9.309068
2023-01-13T09:47:51.971Z,9.309055
2023-01-13T09:48:52.317Z,9.309115
2023-01-13T09:49:51.937Z,9.309089
2023-01-13T09:50:51.944Z,9.309073
2023-01-13T09:51:51.894Z,9.309089
2023-01-13T09:52:51.892Z,9.309114
2023-01-13T09:53:51.906Z,9.309059
2023-01-13T09:55:09.066Z,9.309047
2023-01-13T09:55:52.823Z,9.309002
2023-01-13T09:56:51.833Z,9.309059
2023-01-13T09:57:51.854Z,9.309070
2023-01-13T09:58:51.764Z,9.309064
2023-01-13T09:59:51.776Z,9.309061
2023-01-13T10:00:51.755Z,9.309112
2023-01-13T10:01:51.768Z,9.309004
2023-01-13T10:02:51.716Z,9.309107
2023-01-13T10:03:51.773Z,9.309088
2023-01-13T10:04:51.730Z,9.309037
2023-01-13T10:05:51.725Z,9.309000
2023-01-13T10:06:51.747Z,9.308923
2023-01-13T10:07:51.700Z,9.308928
2023-01-13T10:08:51.712Z,9.309019
2023-01-13T10:09:51.657Z,9.308972
2023-01-13T10:10:51.670Z,9.309076
2023-01-13T10:11:51.717Z,9.309114
2023-01-13T10:12:51.721Z,9.309105
2023-01-13T10:13:51.671Z,9.309028
2023-01-13T10:14:51.747Z,9.309028
2023-01-13T10:15:51.749Z,9.308969
2023-01-13T10:16:51.741Z,9.308960
2023-01-13T10:17:51.753Z,9.308823
2023-01-13T10:18:51.693Z,9.308769
2023-01-13T10:19:51.701Z,9.308793
2023-01-13T10:20:51.723Z,9.308972
2023-01-13T10:21:51.699Z,9.309077
2023-01-13T10:22:51.667Z,9.308967
2023-01-13T10:23:51.722Z,9.308954
2023-01-13T10:24:51.684Z,9.308993
2023-01-13T10:25:51.769Z,9.309062
2023-01-13T10:26:51.638Z,9.308929
2023-01-13T10:27:51.781Z,9.308938
2023-01-13T10:28:51.943Z,9.309064
2023-01-13T10:29:51.652Z,9.308978
2023-01-13T10:30:51.672Z,9.309167
2023-01-13T10:31:51.686Z,9.309245
2023-01-13T10:32:51.592Z,9.309054
2023-01-13T10:33:51.647Z,9.308847
2023-01-13T10:34:51.659Z,9.309042
2023-01-13T10:35:51.678Z,9.309091
2023-01-13T10:36:51.585Z,9.309109
2023-01-13T10:37:51.614Z,9.309183
2023-01-13T10:38:51.608Z,9.309146
2023-01-13T10:43:44.683Z,9.309070
2023-01-13T10:45:16.968Z,9.309069
2023-01-13T10:53:09.051Z,9.309011
2023-01-13T10:54:08.997Z,9.308985
2023-01-13T10:55:08.955Z,9.308922
2023-01-13T10:56:08.976Z,9.309020
2023-01-13T11:00:40.411Z,9.309018
2023-01-13T11:01:40.269Z,9.308998
2023-01-13T11:07:06.231Z,9.309025
2023-01-13T11:08:06.153Z,9.309053
2023-01-13T11:09:06.270Z,9.309104
2023-01-13T11:10:06.142Z,9.309040
2023-01-13T11:11:06.240Z,9.309019
2023-01-13T11:12:06.145Z,9.309032
2023-01-13T11:13:06.205Z,9.308996
2023-01-13T11:14:08.491Z,9.308981
2023-01-13T11:15:06.140Z,9.309058
2023-01-13T11:16:06.189Z,9.309060
2023-01-13T11:17:06.161Z,9.309059
2023-01-13T11:18:06.103Z,9.308932
2023-01-13T11:19:06.119Z,9.309031
2023-01-13T11:20:06.113Z,9.308976
2023-01-13T11:21:06.090Z,9.309091
2023-01-13T11:22:06.088Z,9.309118
2023-01-13T11:23:06.550Z,9.309080
2023-01-13T11:24:06.033Z,9.308967
2023-01-13T11:25:06.052Z,9.308998
2023-01-13T11:26:06.030Z,9.308893
2023-01-13T11:27:06.051Z,9.308928
2023-01-13T11:28:06.048Z,9.309024
2023-01-13T11:29:06.004Z,9.308982
2023-01-13T11:33:04.667Z,9.308938
2023-01-13T11:34:04.446Z,9.308928
2023-01-13T11:35:04.444Z,9.308907
2023-01-13T11:36:04.432Z,9.308889
2023-01-13T11:37:04.400Z,9.308859
2023-01-13T11:38:04.630Z,9.309048
2023-01-13T11:39:04.429Z,9.308812
2023-01-13T11:40:04.444Z,9.308917
2023-01-13T11:41:04.412Z,9.308893
2023-01-13T11:42:04.301Z,9.308913
2023-01-13T11:43:04.316Z,9.308989
2023-01-13T11:44:04.306Z,9.308845
2023-01-13T11:45:04.281Z,9.309031
2023-01-13T11:46:04.302Z,9.309013
2023-01-13T11:47:04.296Z,9.309098
2023-01-13T11:48:04.246Z,9.309126
2023-01-13T11:49:04.264Z,9.309093
2023-01-13T11:50:04.299Z,9.309063
2023-01-13T11:51:04.235Z,9.309116
2023-01-13T11:52:36.269Z,9.309130
2023-01-13T11:53:04.205Z,9.308972
2023-01-13T11:54:04.271Z,9.309011
2023-01-13T11:55:04.247Z,9.309049
2023-01-13T11:56:04.203Z,9.309050
2023-01-13T11:57:05.156Z,9.309044
2023-01-13T11:58:04.179Z,9.309125
2023-01-13T11:59:04.166Z,9.309175
2023-01-13T12:00:04.284Z,9.309108
2023-01-13T12:01:04.290Z,9.309153
2023-01-13T12:02:04.312Z,9.309067
2023-01-13T12:03:04.290Z,9.308994
2023-01-13T12:04:04.218Z,9.309036
2023-01-13T12:05:04.295Z,9.309010
2023-01-13T12:06:04.234Z,9.309040
2023-01-13T12:07:04.219Z,9.309079
2023-01-13T12:08:04.191Z,9.309068
2023-01-13T12:09:04.199Z,9.309155